Republic Airport Farmingdale US
ICAO: KFRG
IATA: FRG
Category: Medium
Scheduled Services: No

Elevation: 82 ft
TransAlt. 18000 ft.

Airport Communications:
NEW YORK APP:118.4
ATIS:126.65
CLNC DEL:128.25
CTAF:118.8
NEW YORK DEP:123.7
GND:121.6
:111.9
TWR:118.8
UNICOM:122.95

KFRG Zoom In..

Runways:

(A) RW 01 length 5516 ft width 150 ft
---- / hdg 13

(B) RW 14 length 6833 ft width 150 ft
ILS 111.90 / hdg 146

(C) RW 19 length 5516 ft width 150 ft
---- / hdg 193

(D) RW 32 length 6833 ft width 150 ft
---- / hdg 326

Location; KFRG
Day. 16 / Time. 17.53 Zulu
* Altimeter: 29.96
* Temperature: 31° c. 87.8°f.
* Wind from: 190° Speed 13 kn.
Dewpoint: 23° c.
Visibility: 10 Statute Miles.
Clouds: Clear (automated report).

KFRG 161753Z 19013KT 10SM CLR 31/23 A2996 RMK AO2 SLP146 T03110228 10317 20244 58008


Wind From 190°
Speed 13 kn.

 
 
jpsmedia.com for Web Design worldairports.se 2018   terms of use